Elmo, Utah
Current Conditions -  °F | °C
As of 3:53 AM on Friday 19 Dec 2014 (Local Time) from KPUC Reporting Station
Clear Clear  
Wind Chill: 13°   Ceiling: Unl
Heat Index: 21°   Visibility: 10mi
Dew Point: 16°   Wind: 6mph
Humidity: 81%   Direction: 30°NNE
Pressure: 30.18"   Gusts: NA
Location:  39.39°N, 110.82°W
Report Text: KPUC 191053Z AUTO 03005KT 10SM CLR M06/M09 A3018 RMK AO2 SLP263 T10611089
Loading
Personal Weather Stations






























Interactive Weather Map New forecast layout! Learn more

10-Day Weather Forecast

Advertisements
Track Severe Weather on mobile